Time;durP1;ratioP1;P1;durP2;ratioP2;P2;SDS_P1;SDS_P2;PMS_P1;PMS_P2;Temp;Humidity;BMP_temperature;BMP_pressure;BME280_temperature;BME280_humidity;BME280_pressure;Samples;Min_cycle;Max_cycle;Signal;HPM_P1;HPM_P2
2024/01/12 00:00:28;;;;;;;32.55;10.05;;;;;;;-141.50;100.00;63355.56;5052876;28;20051;-76
2024/01/12 00:02:55;;;;;;;25.88;9.77;;;;;;;-141.50;100.00;63355.56;5043962;28;20042;-77
2024/01/12 00:05:22;;;;;;;26.63;9.73;;;;;;;-141.50;100.00;63355.56;5048898;28;20044;-77
2024/01/12 00:07:49;;;;;;;29.80;10.65;;;;;;;-141.50;100.00;63355.56;5052693;28;20076;-77
2024/01/12 00:10:16;;;;;;;24.65;10.13;;;;;;;-141.50;100.00;63355.56;5050599;28;20059;-76
2024/01/12 00:12:44;;;;;;;25.33;9.55;;;;;;;-141.50;100.00;63355.56;5033522;28;20053;-77
2024/01/12 00:15:11;;;;;;;34.60;10.77;;;;;;;-141.50;100.00;63355.56;5051053;28;20042;-77
2024/01/12 00:17:37;;;;;;;25.80;9.85;;;;;;;-141.50;100.00;63355.56;5043313;28;20064;-78
2024/01/12 00:20:08;;;;;;;36.38;11.18;;;;;;;-141.50;100.00;63355.56;5033213;28;20048;-79
2024/01/12 00:22:39;;;;;;;32.35;10.52;;;;;;;-141.50;100.00;63355.56;5049983;28;20049;-79
2024/01/12 00:25:06;;;;;;;23.17;9.32;;;;;;;-141.50;100.00;63355.56;5043651;28;20101;-79
2024/01/12 00:27:34;;;;;;;29.15;10.65;;;;;;;-141.50;100.00;63355.56;5016749;28;20053;-77
2024/01/12 00:30:01;;;;;;;30.17;10.80;;;;;;;-141.50;100.00;63355.56;5052073;28;20049;-78
2024/01/12 00:32:39;;;;;;;28.45;10.43;;;;;;;-141.50;100.00;63355.56;5020344;28;20095;-77
2024/01/12 00:35:10;;;;;;;34.03;11.30;;;;;;;-141.50;100.00;63355.56;5009528;28;20061;-78
2024/01/12 00:37:37;;;;;;;33.42;12.90;;;;;;;-141.50;100.00;63355.56;5055282;28;20128;-78
2024/01/12 00:40:06;;;;;;;33.80;12.57;;;;;;;-141.50;100.00;63355.56;5035181;28;20052;-77
2024/01/12 00:42:33;;;;;;;27.70;11.30;;;;;;;-141.50;100.00;63355.56;5054106;28;20037;-78
2024/01/12 00:45:00;;;;;;;30.50;12.10;;;;;;;-141.50;100.00;63355.56;5040671;28;20057;-78
2024/01/12 00:47:28;;;;;;;34.22;12.05;;;;;;;-141.50;100.00;63355.56;5019325;28;20041;-78
2024/01/12 00:49:55;;;;;;;39.17;12.00;;;;;;;-141.50;100.00;63355.56;5057115;28;20048;-76
2024/01/12 00:52:22;;;;;;;34.08;12.20;;;;;;;-141.50;100.00;63355.56;5030578;28;20041;-76
2024/01/12 00:54:49;;;;;;;28.98;11.48;;;;;;;-141.50;100.00;63355.56;5058285;28;20067;-76
2024/01/12 00:57:16;;;;;;;34.10;11.40;;;;;;;-141.50;100.00;63355.56;5059293;28;20060;-78
2024/01/12 00:59:43;;;;;;;33.75;11.18;;;;;;;-141.50;100.00;63355.56;5061405;28;20132;-76
2024/01/12 01:02:13;;;;;;;32.92;12.60;;;;;;;-141.50;100.00;63355.56;5058445;28;20044;-77
2024/01/12 01:04:40;;;;;;;29.30;11.05;;;;;;;-141.50;100.00;63355.56;5053475;28;20101;-77
2024/01/12 01:07:11;;;;;;;35.88;12.50;;;;;;;-141.50;100.00;63355.56;5043988;28;20041;-77
2024/01/12 01:09:39;;;;;;;37.35;12.68;;;;;;;-141.50;100.00;63355.56;5032029;28;20633;-79
2024/01/12 01:12:07;;;;;;;33.10;11.85;;;;;;;-141.50;100.00;63355.56;5057758;28;20105;-76
2024/01/12 01:14:34;;;;;;;36.78;12.80;;;;;;;-141.50;100.00;63355.56;5023570;28;20767;-77
2024/01/12 01:17:01;;;;;;;34.53;12.75;;;;;;;-141.50;100.00;63355.56;5053606;28;20041;-77
2024/01/12 01:19:29;;;;;;;33.47;11.95;;;;;;;-141.50;100.00;63355.56;5018418;28;20041;-77
2024/01/12 01:21:56;;;;;;;35.78;12.32;;;;;;;-141.50;100.00;63355.56;5059911;28;20049;-77
2024/01/12 01:24:29;;;;;;;41.63;13.57;;;;;;;-141.50;100.00;63355.56;5045048;28;20071;-78
2024/01/12 01:26:58;;;;;;;34.40;12.82;;;;;;;-141.50;100.00;63355.56;5053717;28;20045;-77
2024/01/12 01:29:25;;;;;;;34.00;12.43;;;;;;;-141.50;100.00;63355.56;5055023;28;20049;-77
2024/01/12 01:31:52;;;;;;;34.55;13.38;;;;;;;-141.50;100.00;63355.56;5033807;28;20107;-77
2024/01/12 01:34:19;;;;;;;34.03;12.25;;;;;;;-141.50;100.00;63355.56;5035622;28;20045;-77
2024/01/12 01:36:46;;;;;;;43.13;12.95;;;;;;;-141.50;100.00;63355.56;5058819;28;20045;-76
2024/01/12 01:39:15;;;;;;;38.88;12.60;;;;;;;-141.50;100.00;63355.56;5062638;28;20087;-78
2024/01/12 01:41:42;;;;;;;38.40;13.48;;;;;;;-141.50;100.00;63355.56;5048464;28;20045;-78
2024/01/12 01:44:08;;;;;;;35.38;12.40;;;;;;;-141.50;100.00;63355.56;5051358;28;20060;-76
2024/01/12 01:46:37;;;;;;;33.53;12.15;;;;;;;-141.50;100.00;63355.56;5030514;28;20531;-76
2024/01/12 01:49:04;;;;;;;40.88;13.15;;;;;;;-141.50;100.00;63355.56;5027283;28;20084;-78
2024/01/12 01:51:31;;;;;;;34.28;13.40;;;;;;;-141.50;100.00;63355.56;5054576;28;20110;-75
2024/01/12 01:54:02;;;;;;;36.45;12.65;;;;;;;-141.50;100.00;63355.56;5020636;28;20100;-78
2024/01/12 01:56:29;;;;;;;35.92;13.43;;;;;;;-141.50;100.00;63355.56;5012979;28;20049;-79
2024/01/12 01:58:59;;;;;;;40.00;13.93;;;;;;;-141.50;100.00;63355.56;5061848;28;20596;-78
2024/01/12 02:01:33;;;;;;;38.42;14.77;;;;;;;-141.50;100.00;63355.56;5038044;28;20045;-77
2024/01/12 02:04:01;;;;;;;35.33;13.50;;;;;;;-141.50;100.00;63355.56;5056831;28;20058;-76
2024/01/12 02:06:34;;;;;;;43.67;14.63;;;;;;;-141.50;100.00;63355.56;5026531;28;20050;-77
2024/01/12 02:09:04;;;;;;;32.25;13.75;;;;;;;-141.50;100.00;63355.56;5055172;28;20041;-76
2024/01/12 02:11:31;;;;;;;41.35;15.20;;;;;;;-141.50;100.00;63355.56;5022620;28;20263;-78
2024/01/12 02:14:06;;;;;;;47.20;14.60;;;;;;;-141.50;100.00;63355.56;5049885;28;20055;-77
2024/01/12 02:16:35;;;;;;;51.50;14.93;;;;;;;-141.50;100.00;63355.56;5049976;28;20045;-76
2024/01/12 02:19:02;;;;;;;47.40;13.27;;;;;;;-141.50;100.00;63355.56;5053770;28;20045;-78
2024/01/12 02:21:29;;;;;;;41.97;14.93;;;;;;;-141.50;100.00;63355.56;5049753;28;20041;-77
2024/01/12 02:23:56;;;;;;;36.95;13.45;;;;;;;-141.50;100.00;63355.56;5042508;28;20049;-77
2024/01/12 02:26:25;;;;;;;40.80;14.82;;;;;;;-141.50;100.00;63355.56;5041945;28;20105;-77
2024/01/12 02:28:58;;;;;;;42.17;14.73;;;;;;;-141.50;100.00;63355.56;5044848;28;20041;-76
2024/01/12 02:31:26;;;;;;;36.42;14.50;;;;;;;-141.50;100.00;63355.56;5046962;28;20045;-76
2024/01/12 02:33:55;;;;;;;41.90;15.00;;;;;;;-141.50;100.00;63355.56;5038271;28;20133;-77
2024/01/12 02:36:26;;;;;;;43.53;15.25;;;;;;;-141.50;100.00;63355.56;5014935;28;20051;-77
2024/01/12 02:38:54;;;;;;;44.75;15.50;;;;;;;-141.50;100.00;63355.56;5037659;28;20099;-77
2024/01/12 02:41:22;;;;;;;41.83;14.57;;;;;;;-141.50;100.00;63355.56;5031500;28;20049;-76
2024/01/12 02:43:52;;;;;;;45.95;14.73;;;;;;;-141.50;100.00;63355.56;5027455;28;20037;-76
2024/01/12 02:46:18;;;;;;;45.42;15.10;;;;;;;-141.50;100.00;63355.56;5026153;28;20104;-78
2024/01/12 02:48:46;;;;;;;48.30;15.35;;;;;;;-141.50;100.00;63355.56;5041911;28;20056;-78
2024/01/12 02:51:13;;;;;;;43.08;14.43;;;;;;;-141.50;100.00;63355.56;5032504;28;20049;-78
2024/01/12 02:53:39;;;;;;;46.15;15.45;;;;;;;-141.50;100.00;63355.56;5029242;28;20072;-76
2024/01/12 02:56:07;;;;;;;49.35;15.75;;;;;;;-141.50;100.00;63355.56;5045444;28;20056;-75
2024/01/12 02:58:34;;;;;;;42.35;14.48;;;;;;;-141.50;100.00;63355.56;5045042;28;20611;-77
2024/01/12 03:01:02;;;;;;;41.88;14.52;;;;;;;-141.50;100.00;63355.56;5046223;28;20109;-75
2024/01/12 03:03:29;;;;;;;34.90;12.82;;;;;;;-141.50;100.00;63355.56;5046298;28;20048;-76
2024/01/12 03:05:57;;;;;;;40.70;12.82;;;;;;;-141.50;100.00;63355.56;5032854;28;20116;-76
2024/01/12 03:08:26;;;;;;;37.50;13.13;;;;;;;-141.50;100.00;63355.56;5048799;28;20080;-76
2024/01/12 03:10:54;;;;;;;36.30;12.30;;;;;;;-141.50;100.00;63355.56;5052870;28;20530;-78
2024/01/12 03:13:22;;;;;;;38.45;13.68;;;;;;;-141.50;100.00;63355.56;5044214;28;20443;-76
2024/01/12 03:15:49;;;;;;;38.85;12.98;;;;;;;-141.50;100.00;63355.56;5034277;28;20045;-77
2024/01/12 03:18:16;;;;;;;32.97;12.02;;;;;;;-141.50;100.00;63355.56;5044378;28;20455;-77
2024/01/12 03:20:44;;;;;;;40.28;11.93;;;;;;;-141.50;100.00;63355.56;5019274;28;20061;-76
2024/01/12 03:23:11;;;;;;;34.15;11.90;;;;;;;-141.50;100.00;63355.56;5038392;28;20092;-78
2024/01/12 03:25:39;;;;;;;32.28;10.98;;;;;;;-141.50;100.00;63355.56;5028565;28;20128;-77
2024/01/12 03:28:08;;;;;;;38.38;13.02;;;;;;;-141.50;100.00;63355.56;5019800;28;20092;-77
2024/01/12 03:30:35;;;;;;;37.35;11.70;;;;;;;-141.50;100.00;63355.56;5041723;28;20077;-78
2024/01/12 03:33:04;;;;;;;40.15;13.52;;;;;;;-141.50;100.00;63355.56;5025983;28;20045;-78
2024/01/12 03:35:32;;;;;;;39.33;12.70;;;;;;;-141.50;100.00;63355.56;5044506;28;20059;-77
2024/01/12 03:38:00;;;;;;;35.85;12.57;;;;;;;-141.50;100.00;63355.56;5021511;28;20049;-77
2024/01/12 03:40:28;;;;;;;36.58;12.82;;;;;;;-141.50;100.00;63355.56;5051345;28;20055;-77
2024/01/12 03:42:55;;;;;;;36.95;12.45;;;;;;;-141.50;100.00;63355.56;5031192;28;20068;-79
2024/01/12 03:45:22;;;;;;;36.83;13.15;;;;;;;-141.50;100.00;63355.56;5053363;28;20108;-77
2024/01/12 03:47:50;;;;;;;37.00;12.98;;;;;;;-141.50;100.00;63355.56;5041518;28;20045;-80
2024/01/12 03:50:17;;;;;;;41.42;13.20;;;;;;;-141.50;100.00;63355.56;5055646;28;20098;-76
2024/01/12 03:52:46;;;;;;;41.47;13.43;;;;;;;-141.50;100.00;63355.56;5053184;28;20069;-76
2024/01/12 03:55:19;;;;;;;40.58;13.05;;;;;;;-141.50;100.00;63355.56;5031849;28;20069;-77
2024/01/12 03:57:47;;;;;;;43.20;12.85;;;;;;;-141.50;100.00;63355.56;5050228;28;20051;-77
2024/01/12 04:00:14;;;;;;;40.85;12.93;;;;;;;-141.50;100.00;63355.56;5040461;28;20048;-77
2024/01/12 04:02:42;;;;;;;45.45;14.35;;;;;;;-141.50;100.00;63355.56;5049511;28;20055;-78
2024/01/12 04:05:09;;;;;;;37.55;14.15;;;;;;;-141.50;100.00;63355.56;5041386;28;20469;-76
2024/01/12 04:07:37;;;;;;;38.83;13.52;;;;;;;-141.50;100.00;63355.56;5045208;28;20044;-77
2024/01/12 04:10:05;;;;;;;37.72;14.57;;;;;;;-141.50;100.00;63355.56;5034296;28;20091;-77
2024/01/12 04:12:32;;;;;;;38.65;14.70;;;;;;;-141.50;100.00;63355.56;5050270;28;20041;-77
2024/01/12 04:15:01;;;;;;;42.10;14.13;;;;;;;-141.50;100.00;63355.56;5053612;28;20053;-77
2024/01/12 04:17:28;;;;;;;33.65;11.93;;;;;;;-141.50;100.00;63355.56;5035560;28;20112;-77
2024/01/12 04:19:55;;;;;;;38.47;13.00;;;;;;;-141.50;100.00;63355.56;5053548;28;20053;-78
2024/01/12 04:22:23;;;;;;;40.53;13.57;;;;;;;-141.50;100.00;63355.56;5023392;28;20063;-77
2024/01/12 04:24:50;;;;;;;38.63;13.68;;;;;;;-141.50;100.00;63355.56;5041393;28;20302;-76
2024/01/12 04:27:17;;;;;;;37.65;13.60;;;;;;;-141.50;100.00;63355.56;5008433;28;20060;-77
2024/01/12 04:29:46;;;;;;;40.42;13.35;;;;;;;-141.50;100.00;63355.56;5047715;28;20052;-79
2024/01/12 04:32:14;;;;;;;36.40;13.30;;;;;;;-141.50;100.00;63355.56;5043647;28;20071;-78
2024/01/12 04:34:41;;;;;;;51.28;14.88;;;;;;;-141.50;100.00;63355.56;5051942;28;20075;-77
2024/01/12 04:37:09;;;;;;;38.05;13.40;;;;;;;-141.50;100.00;63355.56;5064489;28;20051;-77
2024/01/12 04:39:36;;;;;;;39.88;13.75;;;;;;;-141.50;100.00;63355.56;5058948;28;20065;-76
2024/01/12 04:42:03;;;;;;;39.22;14.18;;;;;;;-141.50;100.00;63355.56;5049931;28;20085;-76
2024/01/12 04:44:34;;;;;;;41.05;13.73;;;;;;;-141.50;100.00;63355.56;5042989;28;20064;-76
2024/01/12 04:47:02;;;;;;;37.30;12.75;;;;;;;-141.50;100.00;63355.56;5048220;28;20049;-78
2024/01/12 04:49:30;;;;;;;37.60;11.35;;;;;;;-141.50;100.00;63355.56;5038054;28;20081;-79
2024/01/12 04:51:57;;;;;;;32.22;11.95;;;;;;;-141.50;100.00;63355.56;5040047;28;20076;-77
2024/01/12 04:54:24;;;;;;;37.42;12.23;;;;;;;-141.50;100.00;63355.56;5022525;28;20137;-77
2024/01/12 04:56:51;;;;;;;33.85;12.60;;;;;;;-141.50;100.00;63355.56;5025391;28;20137;-78
2024/01/12 04:59:18;;;;;;;36.42;12.60;;;;;;;-141.50;100.00;63355.56;5034811;28;20483;-78
2024/01/12 05:01:45;;;;;;;38.38;13.13;;;;;;;-141.50;100.00;63355.56;5032130;28;20073;-80
2024/01/12 05:04:15;;;;;;;31.55;13.00;;;;;;;-141.50;100.00;63355.56;5017564;28;20045;-78
2024/01/12 05:06:42;;;;;;;22.33;9.48;;;;;;;-141.50;100.00;63355.56;5018388;28;20065;-77
2024/01/12 05:09:09;;;;;;;30.35;11.15;;;;;;;-141.50;100.00;63355.56;5031062;28;20574;-77
2024/01/12 05:11:36;;;;;;;35.78;10.73;;;;;;;-141.50;100.00;63355.56;5039090;28;20104;-79
2024/01/12 05:14:04;;;;;;;32.70;10.98;;;;;;;-141.50;100.00;63355.56;5042619;28;20108;-77
2024/01/12 05:16:31;;;;;;;23.42;9.75;;;;;;;-141.50;100.00;63355.56;5024381;28;20057;-78
2024/01/12 05:18:58;;;;;;;23.23;8.32;;;;;;;-141.50;100.00;63355.56;5036908;28;20048;-77
2024/01/12 05:21:25;;;;;;;24.10;9.38;;;;;;;-141.50;100.00;63355.56;5065615;28;20055;-78
2024/01/12 05:23:52;;;;;;;27.13;10.35;;;;;;;-141.50;100.00;63355.56;5030765;28;20045;-78
2024/01/12 05:26:19;;;;;;;32.97;11.20;;;;;;;-141.50;100.00;63355.56;5038738;28;20041;-80
2024/01/12 05:28:48;;;;;;;36.15;12.05;;;;;;;-141.50;100.00;63355.56;5052658;28;20052;-79
2024/01/12 05:31:18;;;;;;;26.35;10.50;;;;;;;-141.50;100.00;63355.56;5051888;28;20423;-79
2024/01/12 05:33:45;;;;;;;29.17;10.27;;;;;;;-141.50;100.00;63355.56;5047541;28;20076;-78
2024/01/12 05:36:15;;;;;;;28.48;10.10;;;;;;;-141.50;100.00;63355.56;5045763;28;20446;-78
2024/01/12 05:38:44;;;;;;;33.67;10.98;;;;;;;-141.50;100.00;63355.56;5041046;28;20460;-79
2024/01/12 05:41:11;;;;;;;32.42;11.52;;;;;;;-141.50;100.00;63355.56;5036423;28;20466;-79
2024/01/12 05:43:39;;;;;;;29.67;9.75;;;;;;;-141.50;100.00;63355.56;5046966;28;20106;-78
2024/01/12 05:46:07;;;;;;;28.60;9.60;;;;;;;-141.50;100.00;63355.56;5045356;28;20040;-78
2024/01/12 05:48:35;;;;;;;26.23;8.52;;;;;;;-141.50;100.00;63355.56;5026139;28;20045;-80
2024/01/12 05:51:03;;;;;;;23.40;8.43;;;;;;;-141.50;100.00;63355.56;5051835;28;20100;-78
2024/01/12 05:53:31;;;;;;;31.58;10.30;;;;;;;-141.50;100.00;63355.56;5044322;28;20141;-79
2024/01/12 05:55:58;;;;;;;38.15;11.63;;;;;;;-141.50;100.00;63355.56;5033852;28;20109;-78
2024/01/12 05:58:26;;;;;;;35.78;11.40;;;;;;;-141.50;100.00;63355.56;5040416;28;20068;-78
2024/01/12 06:00:52;;;;;;;39.10;12.55;;;;;;;-141.50;100.00;63355.56;5030882;28;20065;-79
2024/01/12 06:03:21;;;;;;;38.97;12.40;;;;;;;-141.50;100.00;63355.56;5015225;28;20066;-79
2024/01/12 06:05:50;;;;;;;37.38;12.52;;;;;;;-141.50;100.00;63355.56;5026484;28;20128;-80
2024/01/12 06:08:17;;;;;;;38.15;12.52;;;;;;;-141.50;100.00;63355.56;5032072;28;20045;-80
2024/01/12 06:10:44;;;;;;;36.95;11.73;;;;;;;-141.50;100.00;63355.56;5016817;28;20117;-79
2024/01/12 06:13:12;;;;;;;32.45;10.70;;;;;;;-141.50;100.00;63355.56;5027735;28;20046;-78
2024/01/12 06:15:38;;;;;;;28.58;10.43;;;;;;;-141.50;100.00;63355.56;5030604;28;20046;-79
2024/01/12 06:18:07;;;;;;;26.73;8.82;;;;;;;-141.50;100.00;63355.56;5024196;28;20053;-77
2024/01/12 06:20:34;;;;;;;32.67;9.65;;;;;;;-141.50;100.00;63355.56;5033332;28;20045;-79
2024/01/12 06:23:02;;;;;;;25.80;8.77;;;;;;;-141.50;100.00;63355.56;5028374;28;20099;-79
2024/01/12 06:25:36;;;;;;;28.50;9.43;;;;;;;-141.50;100.00;63355.56;5045010;28;20419;-79
2024/01/12 06:28:05;;;;;;;36.75;9.57;;;;;;;-141.50;100.00;63355.56;5040604;28;20056;-79
2024/01/12 06:30:33;;;;;;;34.20;8.32;;;;;;;-141.50;100.00;63355.56;5002788;28;20046;-79
2024/01/12 06:33:01;;;;;;;27.55;9.05;;;;;;;-141.50;100.00;63355.56;5041606;28;20071;-81
2024/01/12 06:35:28;;;;;;;29.15;7.95;;;;;;;-141.50;100.00;63355.56;5045900;28;20076;-77
2024/01/12 06:37:55;;;;;;;26.55;8.80;;;;;;;-141.50;100.00;63355.56;5016003;28;20069;-78
2024/01/12 06:40:22;;;;;;;30.98;8.60;;;;;;;-141.50;100.00;63355.56;5011269;28;20508;-79
2024/01/12 06:42:50;;;;;;;31.95;9.40;;;;;;;-141.50;100.00;63355.56;5047751;28;20053;-81
2024/01/12 06:45:18;;;;;;;28.25;8.57;;;;;;;-141.50;100.00;63355.56;5044461;28;20051;-77
2024/01/12 06:47:45;;;;;;;34.38;9.00;;;;;;;-141.50;100.00;63355.56;5043759;28;20088;-80
2024/01/12 06:50:12;;;;;;;29.48;8.70;;;;;;;-141.50;100.00;63355.56;5044524;28;20041;-80
2024/01/12 06:52:42;;;;;;;34.08;9.32;;;;;;;-141.50;100.00;63355.56;5024393;28;20045;-79
2024/01/12 06:55:10;;;;;;;25.75;8.38;;;;;;;-141.50;100.00;63355.56;5066204;28;20050;-79
2024/01/12 06:57:37;;;;;;;27.65;9.30;;;;;;;-141.50;100.00;63355.56;5040734;28;20064;-79
2024/01/12 07:00:06;;;;;;;32.97;9.70;;;;;;;-141.50;100.00;63355.56;5068796;28;20075;-78
2024/01/12 07:02:35;;;;;;;29.00;8.75;;;;;;;-141.50;100.00;63355.56;5057168;28;20049;-78
2024/01/12 07:05:03;;;;;;;31.85;9.40;;;;;;;-141.50;100.00;63355.56;5075424;28;20065;-77
2024/01/12 07:07:30;;;;;;;33.15;8.57;;;;;;;-141.50;100.00;63355.56;5034630;28;20080;-77
2024/01/12 07:10:02;;;;;;;30.63;9.70;;;;;;;-141.50;100.00;63355.56;5044744;28;20051;-78
2024/01/12 07:12:29;;;;;;;30.27;9.45;;;;;;;-141.50;100.00;63355.56;5068884;28;20577;-80
2024/01/12 07:14:56;;;;;;;29.75;9.07;;;;;;;-141.50;100.00;63355.56;5029815;28;20045;-79
2024/01/12 07:17:24;;;;;;;45.00;11.35;;;;;;;-141.50;100.00;63355.56;5048728;28;20085;-77
2024/01/12 07:19:51;;;;;;;38.75;10.65;;;;;;;-141.50;100.00;63355.56;5022305;28;20057;-78
2024/01/12 07:22:18;;;;;;;45.17;11.65;;;;;;;-141.50;100.00;63355.56;5038866;28;20041;-78
2024/01/12 07:24:47;;;;;;;47.88;12.93;;;;;;;-141.50;100.00;63355.56;5023726;28;20063;-79
2024/01/12 07:27:16;;;;;;;45.95;11.32;;;;;;;-141.50;100.00;63355.56;5034127;28;20041;-78
2024/01/12 07:29:44;;;;;;;39.47;11.45;;;;;;;-141.50;100.00;63355.56;5010353;28;20515;-78
2024/01/12 07:32:11;;;;;;;55.28;13.55;;;;;;;-141.50;100.00;63355.56;5026168;28;20447;-79
2024/01/12 07:34:38;;;;;;;47.47;12.93;;;;;;;-141.50;100.00;63355.56;5067291;28;20099;-79
2024/01/12 07:37:09;;;;;;;43.20;11.80;;;;;;;-141.50;100.00;63355.56;5044771;28;20144;-79
2024/01/12 07:39:36;;;;;;;54.30;11.65;;;;;;;-141.50;100.00;63355.56;5048972;28;20048;-77
2024/01/12 07:42:03;;;;;;;40.53;10.55;;;;;;;-141.50;100.00;63355.56;5040971;28;20052;-79
2024/01/12 07:44:30;;;;;;;41.55;11.07;;;;;;;-141.50;100.00;63355.56;5043237;28;20052;-79
2024/01/12 07:46:58;;;;;;;43.22;10.85;;;;;;;-141.50;100.00;63355.56;5024818;28;20048;-81
2024/01/12 07:49:25;;;;;;;35.40;10.55;;;;;;;-141.50;100.00;63355.56;5037162;28;20067;-80
2024/01/12 07:51:52;;;;;;;37.60;10.65;;;;;;;-141.50;100.00;63355.56;5037472;28;20049;-80
2024/01/12 07:54:19;;;;;;;33.88;10.05;;;;;;;-141.50;100.00;63355.56;5040164;28;20508;-79
2024/01/12 07:56:47;;;;;;;43.53;10.88;;;;;;;-141.50;100.00;63355.56;5058496;28;20052;-77
2024/01/12 07:59:14;;;;;;;39.28;11.18;;;;;;;-141.50;100.00;63355.56;5069592;28;20071;-77
2024/01/12 08:01:44;;;;;;;37.53;8.73;;;;;;;-141.50;100.00;63355.56;5055193;28;20614;-78
2024/01/12 08:04:12;;;;;;;51.70;11.10;;;;;;;-141.50;100.00;63355.56;5033635;28;20053;-76
2024/01/12 08:06:40;;;;;;;35.22;10.80;;;;;;;-141.50;100.00;63355.56;5055647;28;20036;-81
2024/01/12 08:09:10;;;;;;;34.55;9.98;;;;;;;-141.50;100.00;63355.56;5046993;28;20095;-81
2024/01/12 08:11:37;;;;;;;44.78;11.45;;;;;;;-141.50;100.00;63355.56;5047754;28;20064;-78
2024/01/12 08:14:07;;;;;;;37.55;10.48;;;;;;;-141.50;100.00;63355.56;5035948;28;20571;-75
2024/01/12 08:16:34;;;;;;;33.90;8.75;;;;;;;-141.50;100.00;63355.56;5037639;28;20049;-79
2024/01/12 08:19:02;;;;;;;32.72;8.73;;;;;;;-141.50;100.00;63355.56;5064392;28;20064;-77
2024/01/12 08:21:29;;;;;;;28.70;9.23;;;;;;;-141.50;100.00;63355.56;5036937;28;20451;-78
2024/01/12 08:24:15;;;;;;;37.03;10.35;;;;;;;-141.50;100.00;63355.56;5033636;28;20111;-79
2024/01/12 08:26:45;;;;;;;39.05;10.75;;;;;;;-141.50;100.00;63355.56;5022593;28;20419;-76
2024/01/12 08:29:12;;;;;;;41.92;10.82;;;;;;;-141.50;100.00;63355.56;5036247;28;20052;-77
2024/01/12 08:31:41;;;;;;;40.00;11.02;;;;;;;-141.50;100.00;63355.56;5058372;28;20069;-78
2024/01/12 08:34:13;;;;;;;43.92;10.70;;;;;;;-141.50;100.00;63355.56;5044052;28;20119;-77
2024/01/12 08:36:40;;;;;;;39.50;11.40;;;;;;;-141.50;100.00;63355.56;5026382;28;20053;-79
2024/01/12 08:39:08;;;;;;;31.70;10.00;;;;;;;-141.50;100.00;63355.56;5018764;28;20128;-77
2024/01/12 08:41:42;;;;;;;40.70;12.02;;;;;;;-141.50;100.00;63355.56;5013777;28;20068;-79
2024/01/12 08:44:55;;;;;;;36.70;11.20;;;;;;;-141.50;100.00;63355.56;5025960;28;20064;-77
2024/01/12 08:47:28;;;;;;;40.25;10.07;;;;;;;-141.50;100.00;63355.56;4998201;28;20120;-78
2024/01/12 08:49:55;;;;;;;33.20;8.82;;;;;;;-141.50;100.00;63355.56;5025763;28;20541;-79
2024/01/12 08:52:22;;;;;;;34.53;8.90;;;;;;;-141.50;100.00;63355.56;5024901;28;20125;-77
2024/01/12 08:54:52;;;;;;;29.75;9.15;;;;;;;-141.50;100.00;63355.56;5007071;28;20041;-78
2024/01/12 08:57:19;;;;;;;31.02;8.18;;;;;;;-141.50;100.00;63355.56;5037291;28;20061;-79
2024/01/12 08:59:46;;;;;;;29.05;8.70;;;;;;;-141.50;100.00;63355.56;5005187;28;20095;-77
2024/01/12 09:02:15;;;;;;;25.98;8.10;;;;;;;-141.50;100.00;63355.56;5029076;28;20044;-78
2024/01/12 09:04:43;;;;;;;28.02;7.78;;;;;;;-141.50;100.00;63355.56;5023365;28;20067;-77
2024/01/12 09:07:15;;;;;;;28.58;7.82;;;;;;;-141.50;100.00;63355.56;4999630;28;20567;-77
2024/01/12 09:09:42;;;;;;;28.48;7.65;;;;;;;-141.50;100.00;63355.56;5022865;28;20045;-78
2024/01/12 09:12:10;;;;;;;27.20;7.72;;;;;;;-141.50;100.00;63355.56;5013067;28;20128;-76
2024/01/12 09:14:37;;;;;;;22.63;7.57;;;;;;;-141.50;100.00;63355.56;5000587;28;20049;-79
2024/01/12 09:17:07;;;;;;;26.70;8.07;;;;;;;-141.50;100.00;63355.56;5016688;28;20495;-78
2024/01/12 09:19:35;;;;;;;29.17;6.97;;;;;;;-141.50;100.00;63355.56;5003908;28;20532;-79
2024/01/12 09:22:03;;;;;;;28.80;9.25;;;;;;;-141.50;100.00;63355.56;5027278;28;20430;-76
2024/01/12 09:24:30;;;;;;;25.27;7.60;;;;;;;-141.50;100.00;63355.56;5032026;28;20056;-76
2024/01/12 09:26:58;;;;;;;22.15;7.80;;;;;;;-141.50;100.00;63355.56;5035098;28;20128;-77
2024/01/12 09:29:25;;;;;;;23.35;7.28;;;;;;;-141.50;100.00;63355.56;5007717;28;20049;-75
2024/01/12 09:31:52;;;;;;;26.80;7.75;;;;;;;-141.50;100.00;63355.56;5032916;28;20053;-75
2024/01/12 09:34:22;;;;;;;24.52;7.55;;;;;;;-141.50;100.00;63355.56;5039202;28;20044;-79
2024/01/12 09:36:49;;;;;;;33.42;8.35;;;;;;;-141.50;100.00;63355.56;5034308;28;20057;-77
2024/01/12 09:39:17;;;;;;;24.88;7.70;;;;;;;-141.50;100.00;63355.56;5031142;28;20069;-78
2024/01/12 09:41:49;;;;;;;28.48;8.63;;;;;;;-141.50;100.00;63355.56;4992219;28;20049;-79
2024/01/12 09:44:20;;;;;;;27.13;7.53;;;;;;;-141.50;100.00;63355.56;5033760;28;20198;-79
2024/01/12 09:46:54;;;;;;;32.42;8.02;;;;;;;-141.50;100.00;63355.56;5026944;28;20053;-79
2024/01/12 09:49:23;;;;;;;27.25;7.88;;;;;;;-141.50;100.00;63355.56;5016042;28;20046;-77
2024/01/12 09:51:50;;;;;;;22.48;6.70;;;;;;;-141.50;100.00;63355.56;5026766;28;20049;-79
2024/01/12 09:54:18;;;;;;;26.23;7.20;;;;;;;-141.50;100.00;63355.56;5005787;28;20053;-79
2024/01/12 09:56:46;;;;;;;31.25;7.75;;;;;;;-141.50;100.00;63355.56;5021681;28;20042;-79
2024/01/12 09:59:15;;;;;;;29.30;8.05;;;;;;;-141.50;100.00;63355.56;5025802;28;20053;-77
2024/01/12 10:01:44;;;;;;;30.55;8.35;;;;;;;-141.50;100.00;63355.56;5034242;28;20152;-79
2024/01/12 10:04:11;;;;;;;27.73;8.55;;;;;;;-141.50;100.00;63355.56;5020765;28;20125;-78
2024/01/12 10:06:38;;;;;;;28.38;7.90;;;;;;;-141.50;100.00;63355.56;5007756;28;20041;-79
2024/01/12 10:09:06;;;;;;;29.25;8.50;;;;;;;-141.50;100.00;63355.56;5013115;28;20057;-78
2024/01/12 10:11:34;;;;;;;30.70;8.52;;;;;;;-141.50;100.00;63355.56;5040450;28;20052;-79
2024/01/12 10:14:01;;;;;;;38.25;9.40;;;;;;;-141.50;100.00;63355.56;5037308;28;20048;-77
2024/01/12 10:16:30;;;;;;;28.77;8.80;;;;;;;-141.50;100.00;63355.56;5022493;28;20082;-79
2024/01/12 10:18:58;;;;;;;34.30;9.60;;;;;;;-141.50;100.00;63355.56;5024257;28;20046;-77
2024/01/12 10:21:29;;;;;;;35.75;9.52;;;;;;;-141.50;100.00;63355.56;5017539;28;20041;-80
2024/01/12 10:24:03;;;;;;;32.40;8.75;;;;;;;-141.50;100.00;63355.56;5035810;28;20422;-79
2024/01/12 10:26:30;;;;;;;28.63;8.32;;;;;;;-141.50;100.00;63355.56;5030753;28;20132;-80
2024/01/12 10:29:04;;;;;;;29.88;8.55;;;;;;;-141.50;100.00;63355.56;5000341;28;20687;-79
2024/01/12 10:31:31;;;;;;;35.28;8.63;;;;;;;-141.50;100.00;63355.56;5019284;28;20044;-77
2024/01/12 10:34:00;;;;;;;35.22;10.25;;;;;;;-141.50;100.00;63355.56;5034535;28;20068;-79
2024/01/12 10:36:30;;;;;;;30.38;9.40;;;;;;;-141.50;100.00;63355.56;5018396;28;20588;-80
2024/01/12 10:39:00;;;;;;;24.80;7.80;;;;;;;-141.50;100.00;63355.56;5047509;28;20071;-79
2024/01/12 10:41:29;;;;;;;25.23;8.50;;;;;;;-141.50;100.00;63355.56;5032670;28;20060;-78
2024/01/12 10:44:02;;;;;;;24.52;8.25;;;;;;;-141.50;100.00;63355.56;5011066;28;20049;-80
2024/01/12 10:46:32;;;;;;;26.98;8.18;;;;;;;-141.50;100.00;63355.56;5029768;28;20098;-78
2024/01/12 10:49:17;;;;;;;20.98;7.00;;;;;;;-141.50;100.00;63355.56;5037036;28;20053;-79
2024/01/12 10:51:50;;;;;;;27.73;8.40;;;;;;;-141.50;100.00;63355.56;5026117;28;20641;-76
2024/01/12 10:54:27;;;;;;;22.90;7.70;;;;;;;-141.50;100.00;63355.56;5001463;28;20431;-74
2024/01/12 10:56:58;;;;;;;22.27;7.40;;;;;;;-141.50;100.00;63355.56;4998031;28;20052;-77
2024/01/12 10:59:27;;;;;;;21.88;7.13;;;;;;;-141.50;100.00;63355.56;5027405;28;20080;-76
2024/01/12 11:01:56;;;;;;;23.45;7.90;;;;;;;-141.50;100.00;63355.56;5020120;28;20057;-75